Time;durP1;ratioP1;P1;durP2;ratioP2;P2;SDS_P1;SDS_P2;PMS_P1;PMS_P2;Temp;Humidity;BMP_temperature;BMP_pressure;BME280_temperature;BME280_humidity;BME280_pressure;Samples;Min_cycle;Max_cycle;Signal;HPM_P1;HPM_P2
2023/10/28 00:00:05;;;;;;;;;;;;;;;26.83;43.42;92966.19;5038415;28;7189;-62
2023/10/28 00:02:33;;;;;;;;;;;;;;;26.82;43.96;92968.22;5044654;28;7240;-62
2023/10/28 00:05:01;;;;;;;;;;;;;;;26.80;43.83;92962.53;5048043;28;7329;-62
2023/10/28 00:07:33;;;;;;;;;;;;;;;26.82;43.68;92970.25;5049660;28;7304;-62
2023/10/28 00:10:00;;;;;;;;;;;;;;;26.83;43.84;92966.94;5048020;28;7241;-62
2023/10/28 00:12:33;;;;;;;;;;;;;;;26.82;43.87;92970.25;5044236;28;6999;-62
2023/10/28 00:14:59;;;;;;;;;;;;;;;26.83;43.77;92966.19;5053866;28;9345;-62
2023/10/28 00:17:28;;;;;;;;;;;;;;;26.80;44.12;92973.56;5035507;28;8326;-61
2023/10/28 00:20:04;;;;;;;;;;;;;;;26.79;43.88;92969.34;5062984;28;9542;-61
2023/10/28 00:23:01;;;;;;;;;;;;;;;26.80;44.07;92979.06;5051545;28;7261;-62
2023/10/28 00:25:33;;;;;;;;;;;;;;;26.82;43.81;92975.75;5043880;28;7228;-62
2023/10/28 00:28:01;;;;;;;;;;;;;;;26.80;43.40;92972.81;5044879;28;7222;-62
2023/10/28 00:30:35;;;;;;;;;;;;;;;26.79;43.84;92968.59;5054005;28;8731;-61
2023/10/28 00:33:15;;;;;;;;;;;;;;;26.81;43.57;92980.56;5041347;28;9347;-62
2023/10/28 00:35:47;;;;;;;;;;;;;;;26.77;43.77;92968.41;5030865;28;6967;-62
2023/10/28 00:38:20;;;;;;;;;;;;;;;26.81;43.78;92982.56;5043752;28;7015;-62
2023/10/28 00:40:49;;;;;;;;;;;;;;;26.81;43.48;92988.09;5053054;28;9543;-62
2023/10/28 00:43:24;;;;;;;;;;;;;;;26.83;43.76;92991.03;5052292;28;7490;-62
2023/10/28 00:45:51;;;;;;;;;;;;;;;26.80;43.70;92992.88;5046154;28;8770;-65
2023/10/28 00:48:31;;;;;;;;;;;;;;;26.79;43.32;92998.94;5041359;28;7381;-66
2023/10/28 00:50:58;;;;;;;;;;;;;;;26.80;43.51;93006.66;5024090;28;9401;-66
2023/10/28 00:53:25;;;;;;;;;;;;;;;26.79;43.68;93010.72;5044352;28;7232;-66
2023/10/28 00:55:54;;;;;;;;;;;;;;;26.78;43.47;93006.47;5040849;28;7929;-66
2023/10/28 00:58:30;;;;;;;;;;;;;;;26.76;43.76;93000.03;5051049;28;7163;-66
2023/10/28 01:01:19;;;;;;;;;;;;;;;26.76;43.80;93000.78;5047470;28;7220;-66
2023/10/28 01:03:47;;;;;;;;;;;;;;;26.76;43.68;93000.78;5025602;28;7301;-66
2023/10/28 01:06:51;;;;;;;;;;;;;;;26.75;43.93;93006.84;5045134;28;6974;-66
2023/10/28 01:09:18;;;;;;;;;;;;;;;26.76;43.91;92991.75;5053699;28;7015;-66
2023/10/28 01:11:57;;;;;;;;;;;;;;;26.75;43.79;92987.53;5020566;28;7450;-66
2023/10/28 01:14:27;;;;;;;;;;;;;;;26.77;43.52;92984.97;5033977;28;7256;-66
2023/10/28 01:17:09;;;;;;;;;;;;;;;26.76;43.56;92984.22;5040499;28;7274;-66
2023/10/28 01:19:47;;;;;;;;;;;;;;;26.76;43.85;92987.00;5026405;28;7271;-66
2023/10/28 01:22:26;;;;;;;;;;;;;;;26.75;43.86;92982.75;5044303;28;7229;-66
2023/10/28 01:25:04;;;;;;;;;;;;;;;26.75;43.53;92987.53;5042448;28;7227;-66
2023/10/28 01:28:01;;;;;;;;;;;;;;;26.73;43.59;92982.56;5039469;28;7459;-67
2023/10/28 01:30:27;;;;;;;;;;;;;;;26.72;43.65;92989.34;4960499;28;7364;-66
2023/10/28 01:33:08;;;;;;;;;;;;;;;26.73;43.82;92984.59;4977455;28;7325;-66
2023/10/28 01:35:40;;;;;;;;;;;;;;;26.73;43.46;92979.81;4974759;28;6931;-66
2023/10/28 01:38:06;;;;;;;;;;;;;;;26.72;43.62;92983.84;4977798;28;6992;-66
2023/10/28 01:40:41;;;;;;;;;;;;;;;26.72;43.71;92983.84;4976910;28;7133;-66
2023/10/28 01:43:08;;;;;;;;;;;;;;;26.71;42.81;92971.31;4983104;28;8066;-66
2023/10/28 01:46:21;;;;;;;;;;;;;;;26.70;43.43;92975.38;4958565;28;6964;-66
2023/10/28 01:48:59;;;;;;;;;;;;;;;26.70;43.33;92988.44;4928191;29;7247;-66
2023/10/28 01:51:28;;;;;;;;;;;;;;;26.71;43.60;92978.84;4937921;28;7249;-66
2023/10/28 01:53:55;;;;;;;;;;;;;;;26.71;43.67;92976.09;4931005;28;8799;-57
2023/10/28 01:56:28;;;;;;;;;;;;;;;26.68;44.19;92977.22;4934237;29;8316;-57
2023/10/28 01:59:04;;;;;;;;;;;;;;;26.66;43.75;92977.03;4910815;29;7201;-57
2023/10/28 02:01:35;;;;;;;;;;;;;;;26.68;43.74;92974.47;4933673;29;7007;-57
2023/10/28 02:04:09;;;;;;;;;;;;;;;26.68;43.70;92988.25;4918102;29;9451;-57
2023/10/28 02:06:35;;;;;;;;;;;;;;;26.66;43.89;92980.53;4930762;28;9185;-57
2023/10/28 02:09:21;;;;;;;;;;;;;;;26.64;43.57;92974.09;4985562;28;6982;-57
2023/10/28 02:11:52;;;;;;;;;;;;;;;26.65;43.99;92968.00;4993560;28;7422;-57
2023/10/28 02:14:23;;;;;;;;;;;;;;;26.66;44.06;92990.81;4963628;28;7225;-57
2023/10/28 02:17:10;;;;;;;;;;;;;;;26.67;43.50;92978.50;4990232;28;7128;-57
2023/10/28 02:19:46;;;;;;;;;;;;;;;26.66;43.79;92972.25;4984751;28;9473;-56
2023/10/28 02:22:23;;;;;;;;;;;;;;;26.65;43.24;92972.78;4963817;28;6985;-57
2023/10/28 02:25:16;;;;;;;;;;;;;;;26.64;43.58;92971.34;4975130;28;7213;-57
2023/10/28 02:27:51;;;;;;;;;;;;;;;26.64;43.56;92980.31;5048737;28;9134;-57
2023/10/28 02:30:49;;;;;;;;;;;;;;;26.63;43.83;92978.88;5054838;28;7064;-57
2023/10/28 02:33:17;;;;;;;;;;;;;;;26.63;43.54;92978.88;5027722;28;7299;-56
2023/10/28 02:35:50;;;;;;;;;;;;;;;26.62;43.87;92969.09;5034523;28;6994;-57
2023/10/28 02:38:20;;;;;;;;;;;;;;;26.62;43.71;92971.16;5040061;28;7296;-56
2023/10/28 02:40:49;;;;;;;;;;;;;;;26.63;43.54;92975.38;5038771;28;7478;-57
2023/10/28 02:43:17;;;;;;;;;;;;;;;26.62;43.82;92980.13;5046878;28;6996;-57
2023/10/28 02:45:48;;;;;;;;;;;;;;;26.61;43.58;92988.97;5048653;28;9042;-57
2023/10/28 02:48:14;;;;;;;;;;;;;;;26.60;43.61;92988.22;5047912;28;8809;-57
2023/10/28 02:51:28;;;;;;;;;;;;;;;26.61;43.53;92988.97;5050248;28;7132;-57
2023/10/28 02:54:05;;;;;;;;;;;;;;;26.59;43.69;93000.56;5045027;28;6954;-57
2023/10/28 02:56:38;;;;;;;;;;;;;;;26.58;43.90;92990.06;5051957;28;7017;-57
2023/10/28 02:59:06;;;;;;;;;;;;;;;26.58;43.49;92998.34;5051438;28;9058;-57
2023/10/28 03:01:36;;;;;;;;;;;;;;;26.58;43.65;92998.34;5010514;28;7269;-57
2023/10/28 03:04:03;;;;;;;;;;;;;;;26.56;43.54;92998.16;5050318;28;7555;-57
2023/10/28 03:06:36;;;;;;;;;;;;;;;26.56;43.57;93003.66;5041825;28;9651;-56
2023/10/28 03:09:02;;;;;;;;;;;;;;;26.53;43.85;93007.53;5031732;28;7354;-57
2023/10/28 03:11:29;;;;;;;;;;;;;;;26.57;43.83;93005.16;5053641;28;7215;-57
2023/10/28 03:14:05;;;;;;;;;;;;;;;26.56;43.71;93001.66;5023672;28;6978;-57
2023/10/28 03:16:38;;;;;;;;;;;;;;;26.57;43.65;92999.63;5047308;28;8206;-57
2023/10/28 03:19:20;;;;;;;;;;;;;;;26.56;43.68;92989.88;5046718;28;8795;-57
2023/10/28 03:21:53;;;;;;;;;;;;;;;26.57;43.83;92997.63;5028117;28;7003;-57
2023/10/28 03:24:29;;;;;;;;;;;;;;;26.55;43.34;93002.22;5054356;28;9052;-57
2023/10/28 03:26:55;;;;;;;;;;;;;;;26.55;43.92;92993.94;5057588;28;7496;-57
2023/10/28 03:29:45;;;;;;;;;;;;;;;26.55;43.67;92991.19;5027319;28;7197;-57
2023/10/28 03:32:21;;;;;;;;;;;;;;;26.53;43.84;92993.75;5040150;28;7451;-56
2023/10/28 03:34:57;;;;;;;;;;;;;;;26.51;43.47;92991.53;5025173;28;7321;-57
2023/10/28 03:37:28;;;;;;;;;;;;;;;26.54;43.72;92997.97;5053024;28;7559;-57
2023/10/28 03:39:54;;;;;;;;;;;;;;;26.51;43.65;92994.28;5031119;28;7414;-57
2023/10/28 03:42:20;;;;;;;;;;;;;;;26.51;43.68;92996.31;5053314;28;8503;-57
2023/10/28 03:44:54;;;;;;;;;;;;;;;26.51;44.00;92999.09;5039689;28;7552;-57
2023/10/28 03:47:22;;;;;;;;;;;;;;;26.50;43.60;92975.53;5045246;28;9311;-56
2023/10/28 03:50:26;;;;;;;;;;;;;;;26.52;43.65;92981.25;5045601;28;7058;-57
2023/10/28 03:52:53;;;;;;;;;;;;;;;26.48;43.71;92992.66;5036010;28;6870;-57
2023/10/28 03:55:23;;;;;;;;;;;;;;;26.49;43.92;92991.34;5016658;28;7242;-57
2023/10/28 03:57:50;;;;;;;;;;;;;;;26.45;43.45;92984.72;5022333;28;9184;-57
2023/10/28 04:00:26;;;;;;;;;;;;;;;26.47;43.93;92984.94;5059051;28;8721;-57
2023/10/28 04:02:56;;;;;;;;;;;;;;;26.45;44.04;92987.47;5040471;28;7216;-57
2023/10/28 04:05:32;;;;;;;;;;;;;;;26.45;43.78;92981.97;5051736;28;8845;-56
2023/10/28 04:12:16;;;;;;;;;;;;;;;26.46;43.29;92983.44;4980313;28;9864;-56
2023/10/28 04:15:16;;;;;;;;;;;;;;;26.44;43.73;92986.03;4974975;28;7258;-61
2023/10/28 04:17:54;;;;;;;;;;;;;;;26.42;43.79;92994.09;4940734;28;7262;-61
2023/10/28 04:20:21;;;;;;;;;;;;;;;26.42;43.35;93003.13;4940148;28;7068;-61
2023/10/28 04:23:05;;;;;;;;;;;;;;;26.40;44.26;93005.69;4951750;28;7131;-61
2023/10/28 04:25:32;;;;;;;;;;;;;;;26.40;43.52;93013.22;4950892;28;9358;-60
2023/10/28 04:28:27;;;;;;;;;;;;;;;26.41;43.92;93003.66;4936545;28;7554;-61
2023/10/28 04:31:23;;;;;;;;;;;;;;;26.42;44.00;93000.38;4911290;29;7550;-61
2023/10/28 04:33:49;;;;;;;;;;;;;;;26.41;43.75;92998.88;4871284;29;7370;-61
2023/10/28 04:36:15;;;;;;;;;;;;;;;26.42;43.77;92994.09;4862813;29;7125;-61
2023/10/28 04:39:32;;;;;;;;;;;;;;;26.40;43.68;92989.16;4863525;29;7407;-61
2023/10/28 04:42:14;;;;;;;;;;;;;;;26.38;44.22;92977.91;4855716;29;7222;-61
2023/10/28 04:44:43;;;;;;;;;;;;;;;26.37;43.32;92989.50;4847883;29;7523;-61
2023/10/28 04:47:12;;;;;;;;;;;;;;;26.35;43.85;92989.31;4852283;29;7209;-60
2023/10/28 04:50:09;;;;;;;;;;;;;;;26.36;43.75;92997.03;4863311;29;8295;-61
2023/10/28 04:52:52;;;;;;;;;;;;;;;26.34;43.43;92993.38;4822725;29;7501;-60
2023/10/28 04:55:28;;;;;;;;;;;;;;;26.34;43.53;92988.56;4860447;29;9115;-61
2023/10/28 04:58:05;;;;;;;;;;;;;;;26.33;43.65;92989.88;4859950;29;7669;-61
2023/10/28 05:00:49;;;;;;;;;;;;;;;26.34;43.94;92987.84;4850154;29;7319;-61
2023/10/28 05:03:16;;;;;;;;;;;;;;;26.35;43.93;92981.03;4852495;29;7322;-61
2023/10/28 05:05:42;;;;;;;;;;;;;;;26.38;43.59;92991.69;4842449;29;7634;-61
2023/10/28 05:08:09;;;;;;;;;;;;;;;26.39;43.90;92986.94;4873022;29;6997;-61
2023/10/28 05:10:41;;;;;;;;;;;;;;;26.39;43.78;92989.69;4888791;29;7087;-61
2023/10/28 05:13:10;;;;;;;;;;;;;;;26.37;43.37;92979.22;4931150;29;7863;-60
2023/10/28 05:15:38;;;;;;;;;;;;;;;26.35;43.70;92987.28;4931303;29;9125;-60
2023/10/28 05:18:05;;;;;;;;;;;;;;;26.37;43.56;92981.22;4929408;29;9142;-60
2023/10/28 05:20:35;;;;;;;;;;;;;;;26.36;44.18;92988.03;4910919;29;7003;-60
2023/10/28 05:23:01;;;;;;;;;;;;;;;26.32;44.08;92977.34;4929459;28;7314;-61
2023/10/28 05:25:28;;;;;;;;;;;;;;;26.30;43.69;92966.16;4927408;29;7194;-61
2023/10/28 05:27:53;;;;;;;;;;;;;;;26.32;43.81;92973.88;4936639;28;6969;-61
2023/10/28 05:30:23;;;;;;;;;;;;;;;26.33;43.65;92975.34;5048605;28;9141;-61
2023/10/28 05:32:51;;;;;;;;;;;;;;;26.36;43.48;92974.25;5024319;28;8841;-61
2023/10/28 05:35:17;;;;;;;;;;;;;;;26.35;43.89;92976.28;5053410;28;7581;-61
2023/10/28 05:37:44;;;;;;;;;;;;;;;26.33;43.64;92967.81;5040989;28;7201;-62
2023/10/28 05:40:14;;;;;;;;;;;;;;;26.35;43.93;92968.00;5029406;28;7377;-61
2023/10/28 05:42:46;;;;;;;;;;;;;;;26.37;43.39;92992.25;5034140;28;9044;-61
2023/10/28 05:45:15;;;;;;;;;;;;;;;26.36;43.26;93001.81;5037235;28;7335;-61
2023/10/28 05:47:42;;;;;;;;;;;;;;;26.36;43.80;93002.53;5050457;28;7130;-61
2023/10/28 05:50:17;;;;;;;;;;;;;;;26.36;43.54;93010.09;5036005;28;6992;-62
2023/10/28 05:52:47;;;;;;;;;;;;;;;26.34;43.94;93023.69;5050418;28;6964;-62
2023/10/28 05:55:15;;;;;;;;;;;;;;;26.37;43.81;93028.84;5043708;28;9063;-61
2023/10/28 05:57:52;;;;;;;;;;;;;;;26.39;43.84;93025.53;5051983;28;7316;-61
2023/10/28 06:00:35;;;;;;;;;;;;;;;26.36;43.60;93023.88;5048102;28;6988;-61
2023/10/28 06:03:03;;;;;;;;;;;;;;;26.36;43.50;93032.16;5025365;28;7392;-63
2023/10/28 06:06:07;;;;;;;;;;;;;;;26.35;44.18;93047.19;5016911;28;8757;-61
2023/10/28 06:12:37;;;;;;;;;;;;;;;26.32;43.52;93045.56;5006365;28;6869;-61
2023/10/28 06:15:14;;;;;;;;;;;;;;;26.29;43.81;93043.88;4991451;28;7363;-61
2023/10/28 06:17:58;;;;;;;;;;;;;;;26.28;43.68;93051.41;4993006;28;7240;-61
2023/10/28 06:20:27;;;;;;;;;;;;;;;26.24;43.70;93056.56;5006252;28;8850;-61
2023/10/28 06:22:55;;;;;;;;;;;;;;;26.24;43.52;93072.34;5010266;28;8797;-61
2023/10/28 06:25:21;;;;;;;;;;;;;;;26.23;44.21;93071.59;5010417;28;7362;-62
2023/10/28 06:27:49;;;;;;;;;;;;;;;26.20;44.47;93061.69;5012903;28;7919;-62
2023/10/28 06:30:17;;;;;;;;;;;;;;;26.18;44.28;93064.25;4998416;28;6990;-62
2023/10/28 06:33:15;;;;;;;;;;;;;;;26.15;44.05;93063.31;5009023;28;8772;-61
2023/10/28 06:36:14;;;;;;;;;;;;;;;26.18;44.06;93067.00;4975049;28;8848;-63
2023/10/28 06:38:40;;;;;;;;;;;;;;;26.17;44.02;93063.50;4972276;28;7087;-63
2023/10/28 06:41:41;;;;;;;;;;;;;;;26.20;43.87;93058.94;4975286;28;8092;-64
2023/10/28 06:44:22;;;;;;;;;;;;;;;26.19;43.87;93060.19;4989597;28;7271;-63
2023/10/28 06:46:58;;;;;;;;;;;;;;;26.17;43.89;93049.72;4994896;28;8525;-64
2023/10/28 06:49:24;;;;;;;;;;;;;;;26.22;44.00;93075.66;4998464;28;7173;-63
2023/10/28 06:51:50;;;;;;;;;;;;;;;26.19;44.06;93054.69;4984042;28;6911;-64
2023/10/28 06:54:48;;;;;;;;;;;;;;;26.21;43.56;93062.44;5014776;28;7584;-64
2023/10/28 06:57:26;;;;;;;;;;;;;;;26.21;43.26;93056.91;4954373;28;7262;-63
2023/10/28 07:00:12;;;;;;;;;;;;;;;26.22;43.19;93052.88;4956495;28;7263;-63
2023/10/28 07:02:56;;;;;;;;;;;;;;;26.23;43.18;93059.84;4962615;28;7259;-63
2023/10/28 07:05:46;;;;;;;;;;;;;;;26.23;43.17;93059.84;4943793;28;8754;-63
2023/10/28 07:08:12;;;;;;;;;;;;;;;26.23;42.96;93052.31;4932778;28;6997;-63
2023/10/28 07:10:45;;;;;;;;;;;;;;;26.25;45.01;93051.78;4951250;28;9123;-64
2023/10/28 07:13:21;;;;;;;;;;;;;;;26.28;45.51;93045.16;4970899;28;7198;-63
2023/10/28 07:15:47;;;;;;;;;;;;;;;26.29;44.60;93043.88;4960932;28;8787;-63
2023/10/28 07:18:15;;;;;;;;;;;;;;;26.29;44.07;93041.88;4956524;28;8819;-63
2023/10/28 07:20:45;;;;;;;;;;;;;;;26.26;44.48;93040.19;4981700;28;7086;-63
2023/10/28 07:23:21;;;;;;;;;;;;;;;26.27;44.11;93038.19;4961702;28;7258;-64
2023/10/28 07:26:01;;;;;;;;;;;;;;;26.26;44.36;93047.72;4962262;28;9088;-62
2023/10/28 07:28:36;;;;;;;;;;;;;;;26.26;44.18;93039.47;4961201;28;7364;-62
2023/10/28 07:31:16;;;;;;;;;;;;;;;26.26;44.13;93045.72;4962992;28;8895;-62
2023/10/28 07:33:47;;;;;;;;;;;;;;;26.24;43.84;93048.28;5037712;28;7238;-62
2023/10/28 07:36:15;;;;;;;;;;;;;;;26.22;44.35;93053.59;5044802;28;9018;-62
2023/10/28 07:38:41;;;;;;;;;;;;;;;26.24;44.61;93053.06;5030733;28;8959;-65
2023/10/28 07:41:09;;;;;;;;;;;;;;;26.27;44.16;93051.97;5042014;28;7223;-63
2023/10/28 07:43:39;;;;;;;;;;;;;;;26.28;44.49;93054.16;5038396;28;8784;-66
2023/10/28 07:46:18;;;;;;;;;;;;;;;26.29;44.02;93060.44;5049007;28;9180;-67
2023/10/28 07:49:15;;;;;;;;;;;;;;;26.28;43.55;93061.69;5043180;28;9090;-67
2023/10/28 07:51:49;;;;;;;;;;;;;;;26.26;43.64;93061.50;5040624;28;8758;-66
2023/10/28 07:54:15;;;;;;;;;;;;;;;26.25;43.86;93063.53;5042414;28;7270;-67
2023/10/28 07:56:53;;;;;;;;;;;;;;;26.28;44.20;93067.94;5047064;28;7261;-66
2023/10/28 07:59:31;;;;;;;;;;;;;;;26.26;43.70;93062.25;5038185;28;7864;-66
2023/10/28 08:02:29;;;;;;;;;;;;;;;26.28;44.37;93072.72;5043944;28;9033;-66
2023/10/28 08:04:58;;;;;;;;;;;;;;;26.27;43.75;93083.03;4968442;28;7252;-66
2023/10/28 08:07:38;;;;;;;;;;;;;;;26.25;43.83;93091.09;4992929;28;7231;-66
2023/10/28 08:10:22;;;;;;;;;;;;;;;26.24;44.05;93084.13;4977459;28;9154;-66
2023/10/28 08:13:02;;;;;;;;;;;;;;;26.28;43.65;93100.28;4984948;28;7242;-66
2023/10/28 08:15:41;;;;;;;;;;;;;;;26.28;44.03;93097.53;5005950;28;6939;-66
2023/10/28 08:18:13;;;;;;;;;;;;;;;26.26;42.89;93102.84;4972813;28;7073;-66
2023/10/28 08:20:44;;;;;;;;;;;;;;;26.23;43.46;93101.91;5008769;28;7715;-66
2023/10/28 08:23:41;;;;;;;;;;;;;;;26.24;44.11;93102.66;4989046;28;7037;-66
2023/10/28 08:26:36;;;;;;;;;;;;;;;26.24;43.36;93113.69;4910502;29;8859;-66
2023/10/28 08:29:03;;;;;;;;;;;;;;;26.22;43.78;93113.50;4916707;29;7296;-66
2023/10/28 08:31:44;;;;;;;;;;;;;;;26.19;43.62;93096.03;4914423;29;7152;-66
2023/10/28 08:34:25;;;;;;;;;;;;;;;26.23;43.74;93109.47;4895770;29;7271;-67
2023/10/28 08:36:59;;;;;;;;;;;;;;;26.19;43.18;93101.53;4923064;29;7553;-67
2023/10/28 08:39:43;;;;;;;;;;;;;;;26.24;43.68;93108.16;4900006;29;7430;-66
2023/10/28 08:42:28;;;;;;;;;;;;;;;26.23;43.61;93112.94;4946196;28;7246;-66
2023/10/28 08:44:58;;;;;;;;;;;;;;;26.25;43.48;93117.94;4929231;28;9056;-66
2023/10/28 08:47:36;;;;;;;;;;;;;;;26.26;43.29;93125.66;4949466;28;9095;-66
2023/10/28 08:50:17;;;;;;;;;;;;;;;26.22;43.62;93125.25;4949969;28;7506;-66
2023/10/28 08:52:55;;;;;;;;;;;;;;;26.23;43.65;93126.72;4957134;28;7504;-66
2023/10/28 08:55:39;;;;;;;;;;;;;;;26.24;44.00;93119.19;4945294;28;7134;-64
2023/10/28 08:58:34;;;;;;;;;;;;;;;26.24;43.33;93121.94;4953693;28;9182;-64
2023/10/28 09:01:02;;;;;;;;;;;;;;;26.22;43.95;93113.50;4930651;28;7010;-64
2023/10/28 09:03:40;;;;;;;;;;;;;;;26.25;43.61;93123.44;4988472;28;8930;-65
2023/10/28 09:06:07;;;;;;;;;;;;;;;26.25;43.83;93120.69;4978984;28;7081;-63
2023/10/28 09:08:49;;;;;;;;;;;;;;;26.28;44.01;93122.34;4992645;28;7196;-63
2023/10/28 09:11:15;;;;;;;;;;;;;;;26.27;43.28;93115.38;4993865;28;7237;-64
2023/10/28 09:14:10;;;;;;;;;;;;;;;26.28;43.69;93114.81;4977720;28;9407;-63
2023/10/28 09:17:03;;;;;;;;;;;;;;;26.28;43.57;93119.56;4990893;28;7272;-64
2023/10/28 09:19:30;;;;;;;;;;;;;;;26.26;43.40;93116.63;4972171;28;6864;-64
2023/10/28 09:22:09;;;;;;;;;;;;;;;26.27;43.95;93126.38;4984506;28;9133;-64
2023/10/28 09:24:55;;;;;;;;;;;;;;;26.25;43.86;93128.94;4990847;28;7852;-64
2023/10/28 09:27:22;;;;;;;;;;;;;;;26.25;43.94;93129.69;4976701;28;8450;-64
2023/10/28 09:29:48;;;;;;;;;;;;;;;26.25;43.83;93131.72;4992674;28;9141;-64
2023/10/28 09:32:34;;;;;;;;;;;;;;;26.22;43.70;93138.31;4992002;28;6979;-64
2023/10/28 09:35:14;;;;;;;;;;;;;;;26.21;43.64;93136.84;4983506;28;9008;-64
2023/10/28 09:37:44;;;;;;;;;;;;;;;26.23;43.64;93137.75;5016497;28;7605;-64
2023/10/28 09:40:17;;;;;;;;;;;;;;;26.22;43.97;93128.03;5052120;28;9016;-64
2023/10/28 09:42:57;;;;;;;;;;;;;;;26.27;44.21;93137.41;5026602;28;8812;-64
2023/10/28 09:45:24;;;;;;;;;;;;;;;26.28;44.25;93133.34;5037354;28;7235;-64
2023/10/28 09:48:16;;;;;;;;;;;;;;;26.27;44.41;93129.16;5026855;28;7278;-64
2023/10/28 09:50:50;;;;;;;;;;;;;;;26.28;44.38;93131.34;5036971;28;9129;-64
2023/10/28 09:53:29;;;;;;;;;;;;;;;26.28;44.21;93136.13;5054278;28;7432;-64
2023/10/28 09:56:03;;;;;;;;;;;;;;;26.31;44.31;93129.53;5041301;28;8869;-64
2023/10/28 09:58:57;;;;;;;;;;;;;;;26.28;44.45;93122.34;5044250;28;7245;-63
2023/10/28 10:01:48;;;;;;;;;;;;;;;26.28;44.38;93122.34;5052809;28;7285;-64
2023/10/28 10:04:58;;;;;;;;;;;;;;;26.28;43.98;93134.09;5042703;28;7259;-64
2023/10/28 10:07:45;;;;;;;;;;;;;;;26.28;44.21;93123.06;5026918;28;9464;-64
2023/10/28 10:10:15;;;;;;;;;;;;;;;26.28;43.78;93122.34;5050333;28;7251;-64
2023/10/28 10:13:19;;;;;;;;;;;;;;;26.23;44.19;93118.44;5037627;28;7703;-63
2023/10/28 10:19:35;;;;;;;;;;;;;;;26.28;44.82;93111.31;5045312;28;7955;-64
2023/10/28 10:22:26;;;;;;;;;;;;;;;26.28;43.89;93106.53;5038284;28;7340;-64
2023/10/28 10:24:54;;;;;;;;;;;;;;;26.28;44.25;93108.56;5023645;28;7281;-63
2023/10/28 10:27:44;;;;;;;;;;;;;;;26.26;43.83;93113.88;5038307;28;7223;-63
2023/10/28 10:30:33;;;;;;;;;;;;;;;26.25;43.96;93110.41;5041121;28;8026;-63
2023/10/28 10:33:03;;;;;;;;;;;;;;;26.28;44.49;93116.81;5039444;28;7164;-64
2023/10/28 10:35:34;;;;;;;;;;;;;;;26.26;43.92;93116.63;5021677;28;9084;-64
2023/10/28 10:38:28;;;;;;;;;;;;;;;26.26;44.48;93117.38;5037238;28;7495;-63
2023/10/28 10:41:00;;;;;;;;;;;;;;;26.25;43.97;93118.66;5046872;28;7048;-63
2023/10/28 10:43:51;;;;;;;;;;;;;;;26.25;44.31;93115.91;5035900;28;7231;-64
2023/10/28 10:46:26;;;;;;;;;;;;;;;26.27;44.47;93124.38;5047101;28;7255;-64
2023/10/28 10:48:57;;;;;;;;;;;;;;;26.28;44.17;93123.06;5021261;28;9413;-63
2023/10/28 10:51:44;;;;;;;;;;;;;;;26.29;44.09;93112.78;5037908;28;7508;-63
2023/10/28 10:54:13;;;;;;;;;;;;;;;26.33;43.89;93115.94;5019985;28;7323;-64
2023/10/28 10:56:42;;;;;;;;;;;;;;;26.33;43.54;93108.41;5027863;28;7320;-64
2023/10/28 10:59:32;;;;;;;;;;;;;;;26.33;44.14;93107.66;5014324;28;7055;-63
2023/10/28 11:02:03;;;;;;;;;;;;;;;26.33;43.90;93105.66;5035594;28;7717;-64
2023/10/28 11:04:42;;;;;;;;;;;;;;;26.32;43.99;93100.69;5036437;28;8742;-64
2023/10/28 11:07:19;;;;;;;;;;;;;;;26.32;43.81;93095.19;5026773;28;7310;-63
2023/10/28 11:09:50;;;;;;;;;;;;;;;26.33;44.19;93096.63;5035601;28;7969;-63
2023/10/28 11:12:23;;;;;;;;;;;;;;;26.35;43.40;93099.56;5031037;28;8511;-63
2023/10/28 11:14:54;;;;;;;;;;;;;;;26.31;43.65;93090.94;5039808;28;7246;-63
2023/10/28 11:17:30;;;;;;;;;;;;;;;26.32;44.03;93101.41;5040495;28;6974;-63
2023/10/28 11:20:03;;;;;;;;;;;;;;;26.33;44.12;93097.38;5030599;28;7415;-63
2023/10/28 11:22:31;;;;;;;;;;;;;;;26.30;44.36;93092.94;5044459;28;9553;-63
2023/10/28 11:24:57;;;;;;;;;;;;;;;26.30;43.99;93092.19;5049638;28;7056;-63
2023/10/28 11:27:28;;;;;;;;;;;;;;;26.28;44.01;93095.50;5054396;28;8808;-63
2023/10/28 11:29:56;;;;;;;;;;;;;;;26.25;43.78;93079.34;5038173;28;8356;-63
2023/10/28 11:32:24;;;;;;;;;;;;;;;26.29;43.69;93094.25;5053399;28;7611;-63
2023/10/28 11:35:29;;;;;;;;;;;;;;;26.29;43.49;93093.50;5054716;28;7237;-63
2023/10/28 11:38:36;;;;;;;;;;;;;;;26.30;44.07;93092.19;4994787;28;6993;-63
2023/10/28 11:41:13;;;;;;;;;;;;;;;26.27;43.67;93079.53;4979748;28;9128;-63
2023/10/28 11:43:59;;;;;;;;;;;;;;;26.25;43.65;93074.56;4976244;28;6999;-63
2023/10/28 11:46:31;;;;;;;;;;;;;;;26.24;43.63;93056.56;4985400;28;7289;-63
2023/10/28 11:48:59;;;;;;;;;;;;;;;26.29;43.62;93052.16;4994173;28;9079;-63
2023/10/28 11:51:27;;;;;;;;;;;;;;;26.28;43.47;93061.69;4992756;28;7004;-63
2023/10/28 11:53:55;;;;;;;;;;;;;;;26.27;43.61;93052.72;4993291;28;7286;-63
2023/10/28 11:56:21;;;;;;;;;;;;;;;26.30;42.93;93053.63;4986716;28;7198;-63
2023/10/28 11:58:58;;;;;;;;;;;;;;;26.34;43.56;93049.22;4996257;28;9100;-63
2023/10/28 12:01:36;;;;;;;;;;;;;;;26.40;43.76;93043.53;5001114;28;8750;-63
2023/10/28 12:04:21;;;;;;;;;;;;;;;26.36;43.06;93045.94;4994104;28;8693;-63
2023/10/28 12:06:48;;;;;;;;;;;;;;;26.37;42.97;93041.88;4992029;28;7063;-63
2023/10/28 12:09:15;;;;;;;;;;;;;;;26.40;43.36;93040.78;5018074;28;8811;-63
2023/10/28 12:11:41;;;;;;;;;;;;;;;26.40;43.18;93036.03;5032436;28;9081;-64
2023/10/28 12:14:08;;;;;;;;;;;;;;;26.43;43.33;93028.66;5038939;28;7267;-63
2023/10/28 12:16:40;;;;;;;;;;;;;;;26.44;43.13;93030.13;5040347;28;9237;-63
2023/10/28 12:19:15;;;;;;;;;;;;;;;26.47;43.32;93023.53;5041357;28;8635;-63
2023/10/28 12:21:49;;;;;;;;;;;;;;;26.48;43.50;93016.72;5025551;28;9357;-63
2023/10/28 12:24:22;;;;;;;;;;;;;;;26.43;43.24;93006.59;5049244;28;6990;-63
2023/10/28 12:26:53;;;;;;;;;;;;;;;26.47;42.96;93001.47;5048079;28;7190;-64
2023/10/28 12:29:21;;;;;;;;;;;;;;;26.53;43.02;93010.28;5054433;28;7025;-63
2023/10/28 12:31:57;;;;;;;;;;;;;;;26.54;43.17;93003.47;5053022;28;7074;-63
2023/10/28 12:34:25;;;;;;;;;;;;;;;26.53;43.18;92996.50;5036496;28;7268;-64
2023/10/28 12:36:52;;;;;;;;;;;;;;;26.55;42.94;92999.44;5048348;28;7505;-64
2023/10/28 12:39:45;;;;;;;;;;;;;;;26.56;43.12;93000.91;5045285;28;8053;-64
2023/10/28 12:42:22;;;;;;;;;;;;;;;26.52;43.10;92997.78;5034801;28;6937;-64
2023/10/28 12:44:51;;;;;;;;;;;;;;;26.51;43.06;92986.00;5048231;28;7247;-64
2023/10/28 12:47:17;;;;;;;;;;;;;;;26.52;42.77;92970.94;5032142;28;7360;-63
2023/10/28 12:49:46;;;;;;;;;;;;;;;26.57;43.09;92991.38;5050330;28;7290;-63
2023/10/28 12:52:13;;;;;;;;;;;;;;;26.57;43.66;92988.59;5053286;28;9576;-63
2023/10/28 12:54:39;;;;;;;;;;;;;;;26.61;43.21;92988.97;5047178;28;7109;-64
2023/10/28 12:57:07;;;;;;;;;;;;;;;26.64;43.07;92990.63;5022293;28;9090;-63
2023/10/28 12:59:36;;;;;;;;;;;;;;;26.65;43.09;92986.56;5033173;28;7410;-63
2023/10/28 13:02:04;;;;;;;;;;;;;;;26.64;42.81;92971.34;5049402;28;7067;-63
2023/10/28 13:04:34;;;;;;;;;;;;;;;26.63;42.58;92980.88;5042885;28;7207;-63
2023/10/28 13:07:05;;;;;;;;;;;;;;;26.64;42.80;92979.59;5047847;28;7067;-63
2023/10/28 13:09:31;;;;;;;;;;;;;;;26.65;43.20;92972.78;5039041;28;7263;-62
2023/10/28 13:11:59;;;;;;;;;;;;;;;26.69;42.55;92973.16;5054691;28;6964;-63
2023/10/28 13:14:28;;;;;;;;;;;;;;;26.71;42.98;92981.59;5045521;28;7242;-63
2023/10/28 13:17:05;;;;;;;;;;;;;;;26.73;42.41;92987.38;5030648;28;7256;-64
2023/10/28 13:19:31;;;;;;;;;;;;;;;26.77;42.85;92996.72;5051758;28;7275;-63
2023/10/28 13:22:09;;;;;;;;;;;;;;;26.81;42.78;93004.66;5044800;28;7318;-62
2023/10/28 13:25:13;;;;;;;;;;;;;;;26.86;42.74;93009.25;5049512;28;8627;-63
2023/10/28 13:27:41;;;;;;;;;;;;;;;26.85;43.07;93002.25;5048656;28;7040;-63
2023/10/28 13:30:09;;;;;;;;;;;;;;;26.86;42.03;93004.44;5040360;28;6984;-63
2023/10/28 13:33:04;;;;;;;;;;;;;;;26.85;42.74;93018.81;5053536;28;7218;-63
2023/10/28 13:35:40;;;;;;;;;;;;;;;26.85;42.77;93019.53;4937328;28;9426;-55
2023/10/28 13:38:16;;;;;;;;;;;;;;;26.88;42.75;93017.72;4955321;28;9190;-55
2023/10/28 13:41:36;;;;;;;;;;;;;;;26.89;42.67;93025.44;4949052;28;8789;-55
2023/10/28 13:44:19;;;;;;;;;;;;;;;26.94;42.55;93026.53;4863118;29;7950;-55
2023/10/28 13:46:46;;;;;;;;;;;;;;;26.93;42.58;93025.03;4868326;29;9273;-55
2023/10/28 13:49:14;;;;;;;;;;;;;;;27.00;42.44;93035.34;4877931;29;8765;-56
2023/10/28 13:52:03;;;;;;;;;;;;;;;26.96;42.68;93025.97;4866516;29;7229;-55
2023/10/28 13:54:31;;;;;;;;;;;;;;;26.92;42.16;93032.59;4877050;29;7287;-53